DW4026 Weather Reports


Display with metric or nautical units.
time (UTC)temp
F
wind
direction
speed
MPH
gust
MPH
rain 1hr
in
rain 24hr
in
rain mn
in
humidity
%
barometer
mb
20191023233003 49 150 0.0 1.0 0.00 0.00 0.00 44 1033.1
20191023231502 48 165 0.0 1.0 0.00 0.00 0.00 44 1033.1
20191023224840 48 154 0.0 1.0 0.00 0.00 0.00 44 1033.0
20191023223144 49 168 0.0 1.0 0.00 0.00 0.00 44 1032.9
20191023221729 50 139 0.0 1.0 0.00 0.00 0.00 40 1032.6
20191023220211 49 178 0.0 0.0 0.00 0.00 0.00 43 1032.4
20191023214705 49 178 0.0 1.0 0.00 0.00 0.00 41 1032.2
20191023213128 51 173 0.0 1.0 0.00 0.00 0.00 38 1031.9
20191023211615 52 164 0.0 1.0 0.00 0.00 0.00 40 1032.1
20191023210123 51 269 0.0 0.0 0.00 0.00 0.00 36 1032.0
20191023204709 50 269 0.0 0.0 0.00 0.00 0.00 38 1032.2
20191023203150 51 269 0.0 0.0 0.00 0.00 0.00 37 1032.5
20191023201622 51 269 0.0 0.0 0.00 0.00 0.00 39 1032.5
20191023200219 51 269 0.0 0.0 0.00 0.00 0.00 38 1032.6
20191023194616 51 269 0.0 0.0 0.00 0.00 0.00 37 1032.8
20191023193145 51 269 0.0 0.0 0.00 0.00 0.00 41 1032.8
20191023191645 50 269 0.0 0.0 0.00 0.00 0.00 40 1032.8
20191023190124 49 268 0.0 0.0 0.00 0.00 0.00 41 1032.7
20191023184621 49 266 0.0 0.0 0.00 0.00 0.00 43 1032.6
20191023183157 49 266 0.0 0.0 0.00 0.00 0.00 46 1032.7
20191023181807 47 266 0.0 0.0 0.00 0.00 0.00 48 1032.8
20191023180104 48 266 0.0 0.0 0.00 0.00 0.00 48 1032.7
20191023174553 46 283 0.0 0.0 0.00 0.00 0.00 48 1032.7
20191023173040 45 284 0.0 0.0 0.00 0.00 0.00 54 1032.7
20191023171543 42 284 0.0 0.0 0.00 0.00 0.00 62 1032.6
20191023170023 39 284 0.0 0.0 0.00 0.00 0.00 73 1032.6
20191023164521 36 284 0.0 0.0 0.00 0.00 0.00 82 1032.6
20191023163045 34 284 0.0 0.0 0.00 0.00 0.00 83 1032.5
20191023161516 33 284 0.0 0.0 0.00 0.00 0.00 85 1032.3
20191023160017 32 284 0.0 0.0 0.00 0.00 0.00 86 1032.0
20191023154503 31 284 0.0 0.0 0.00 0.00 0.00 86 1031.9
20191023153130 30 284 0.0 0.0 0.00 0.00 0.00 87 1031.5
20191023151639 29 284 0.0 0.0 0.00 0.00 0.00 87 1031.0
20191023150126 29 284 0.0 0.0 0.00 0.00 0.00 86 1030.7
20191023144716 29 284 0.0 0.0 0.00 0.00 0.00 86 1030.2
20191023143139 29 284 0.0 0.0 0.00 0.00 0.00 92 1030.0
20191023141636 29 284 0.0 0.0 0.00 0.00 0.00 86 1029.6
20191023140140 29 284 0.0 0.0 0.00 0.00 0.00 86 1029.4
20191023134620 29 284 0.0 0.0 0.00 0.01 0.00 85 1029.2
20191023133053 29 284 0.0 0.0 0.00 0.01 0.00 84 1029.2
20191023131537 30 284 0.0 0.0 0.00 0.01 0.00 82 1029.0
20191023130057 30 284 0.0 0.0 0.00 0.01 0.00 80 1028.9
20191023124622 31 284 0.0 0.0 0.00 0.01 0.00 79 1028.6
20191023123052 32 284 0.0 0.0 0.00 0.01 0.00 78 1028.5
20191023121530 32 284 0.0 0.0 0.00 0.01 0.00 77 1028.3
20191023120059 33 284 0.0 0.0 0.00 0.01 0.00 75 1028.3
20191023114527 34 284 0.0 0.0 0.00 0.01 0.00 72 1028.0
20191023113110 34 284 0.0 0.0 0.00 0.01 0.00 72 1027.8
20191023111525 35 284 0.0 0.0 0.00 0.01 0.00 71 1027.5
20191023110048 35 284 0.0 0.0 0.00 0.01 0.00 69 1027.3
20191023104524 35 284 0.0 0.0 0.00 0.01 0.00 68 1027.2
20191023103012 36 284 0.0 0.0 0.00 0.01 0.00 66 1027.0
20191023100337 38 284 0.0 0.0 0.00 0.01 0.00 62 1026.5
20191023094718 40 284 0.0 0.0 0.00 0.01 0.00 60 1026.2
20191023093135 41 284 0.0 0.0 0.00 0.01 0.00 56 1026.3
20191023091640 42 284 0.0 0.0 0.00 0.01 0.00 54 1026.2
20191023090217 43 284 0.0 0.0 0.00 0.01 0.00 51 1026.0
20191023084604 43 284 0.0 0.0 0.00 0.01 0.00 50 1025.8
20191023083100 43 284 0.0 0.0 0.00 0.01 0.00 50 1025.7
20191023081649 43 284 0.0 0.0 0.00 0.01 0.00 51 1025.7
20191023080118 44 284 0.0 0.0 0.00 0.01 0.00 52 1025.7
20191023074646 44 284 0.0 0.0 0.00 0.01 0.00 52 1025.6
20191023073116 44 284 0.0 0.0 0.00 0.01 0.00 53 1025.5
20191023071606 44 284 0.0 0.0 0.00 0.01 0.00 51 1025.3
20191023070107 44 284 0.0 0.0 0.00 0.01 0.00 52 1025.3
20191023064622 45 284 0.0 0.0 0.00 0.01 0.00 51 1025.0
20191023063051 46 284 0.0 0.0 0.00 0.01 0.00 50 1024.8
20191023061545 46 289 0.0 1.0 0.00 0.01 0.00 48 1024.5
20191023060027 46 262 0.0 8.0 0.00 0.01 0.00 48 1024.2
20191023054553 46 262 0.0 1.0 0.00 0.01 0.01 48 1024.0
20191023053028 46 257 0.0 1.0 0.00 0.01 0.01 50 1023.9
20191023051548 46 265 0.0 1.0 0.00 0.01 0.01 48 1023.8
20191023050027 47 241 0.0 1.0 0.00 0.01 0.01 48 1023.6
20191023044521 47 274 1.0 8.0 0.00 0.01 0.01 48 1023.6
20191023043054 48 276 0.0 10.0 0.00 0.01 0.01 47 1023.4
20191023041531 48 260 0.0 8.0 0.00 0.01 0.01 46 1023.2
20191023040024 48 278 0.0 9.0 0.00 0.01 0.01 46 1023.0
20191023034531 48 274 0.0 1.0 0.00 0.01 0.01 47 1022.9
20191023033023 48 271 0.0 14.0 0.00 0.01 0.01 47 1022.7
20191023031532 48 284 0.0 8.0 0.00 0.01 0.01 48 1022.3
20191023030048 49 280 0.0 7.0 0.00 0.01 0.01 47 1022.1
20191023024516 49 282 1.0 12.0 0.00 0.01 0.01 46 1022.1
20191023023051 49 283 0.0 15.0 0.00 0.01 0.01 46 1022.0
20191023021524 50 285 2.0 15.0 0.00 0.01 0.01 44 1022.0
20191023020015 50 277 2.0 16.0 0.00 0.01 0.01 42 1022.0
20191023014519 50 274 0.0 11.0 0.00 0.01 0.01 41 1021.7
20191023013019 51 248 0.0 16.0 0.00 0.01 0.01 41 1021.5
20191023011541 51 281 0.0 19.0 0.00 0.01 0.01 41 1021.3
20191023010049 51 298 0.0 10.0 0.00 0.01 0.01 43 1021.0
20191023004509 52 289 0.0 13.0 0.00 0.01 0.01 43 1020.9
20191023003045 52 294 1.0 11.0 0.00 0.01 0.01 41 1020.6
20191023001517 53 274 0.0 15.0 0.00 0.01 0.01 40 1020.4
20191023000011 54 280 6.0 18.0 0.00 0.01 0.01 39 1020.4
20191022234522 55 281 3.0 24.0 0.00 0.01 0.01 39 1019.8